createdAt,value
2022-07-30T00:00:47.821Z,99.90
2022-07-30T00:01:50.555Z,99.90
2022-07-30T00:02:54.192Z,99.90
2022-07-30T00:03:56.224Z,99.90
2022-07-30T00:05:00.640Z,99.90
2022-07-30T00:06:02.766Z,99.90
2022-07-30T00:07:05.989Z,99.90
2022-07-30T00:08:08.014Z,99.90
2022-07-30T00:09:11.020Z,99.90
2022-07-30T00:10:14.003Z,99.90
2022-07-30T00:11:16.082Z,99.90
2022-07-30T00:12:19.116Z,99.90
2022-07-30T00:13:22.124Z,99.90
2022-07-30T00:14:24.356Z,99.90
2022-07-30T00:15:27.669Z,99.90
2022-07-30T00:16:30.008Z,99.90
2022-07-30T00:17:33.111Z,99.90
2022-07-30T00:18:35.102Z,99.90
2022-07-30T00:19:38.628Z,99.90
2022-07-30T00:20:44.282Z,99.90
2022-07-30T00:21:46.641Z,99.90
2022-07-30T00:22:49.682Z,99.90
2022-07-30T00:24:01.828Z,99.90
2022-07-30T00:25:06.082Z,99.90
2022-07-30T00:26:08.089Z,99.90
2022-07-30T00:27:11.144Z,99.90
2022-07-30T00:28:14.207Z,99.90
2022-07-30T00:29:16.480Z,99.90
2022-07-30T00:30:19.461Z,99.90
2022-07-30T00:31:21.583Z,99.90
2022-07-30T00:32:24.661Z,99.90
2022-07-30T00:33:26.861Z,99.90
2022-07-30T00:34:30.045Z,99.90
2022-07-30T00:35:32.055Z,99.90
2022-07-30T00:36:37.525Z,99.90
2022-07-30T00:37:41.348Z,99.90
2022-07-30T00:38:44.348Z,99.90
2022-07-30T00:39:46.344Z,99.90
2022-07-30T00:40:49.436Z,99.90
2022-07-30T00:41:59.967Z,99.90
2022-07-30T00:43:03.115Z,99.90
2022-07-30T00:44:05.396Z,99.90
2022-07-30T00:45:09.848Z,99.90
2022-07-30T00:46:12.033Z,99.90
2022-07-30T00:47:15.231Z,99.90
2022-07-30T00:48:17.348Z,99.90
2022-07-30T00:49:20.694Z,99.90
2022-07-30T00:50:24.692Z,99.90
2022-07-30T00:51:26.849Z,99.90
2022-07-30T00:52:32.006Z,99.90
2022-07-30T00:53:35.122Z,99.90
2022-07-30T00:54:37.213Z,99.90
2022-07-30T00:55:40.488Z,99.90
2022-07-30T00:56:42.951Z,99.90
2022-07-30T00:57:46.117Z,99.90
2022-07-30T00:58:49.046Z,99.90
2022-07-30T00:59:52.111Z,99.90
2022-07-30T01:00:54.179Z,99.90
2022-07-30T01:01:57.541Z,99.90
2022-07-30T01:02:59.592Z,99.90
2022-07-30T01:04:03.025Z,99.90
2022-07-30T01:05:06.378Z,99.90
2022-07-30T01:06:14.557Z,99.90
2022-07-30T01:07:16.753Z,99.90
2022-07-30T01:08:21.159Z,99.90
2022-07-30T01:09:23.154Z,99.90
2022-07-30T01:10:26.226Z,99.90
2022-07-30T01:11:34.301Z,99.90
2022-07-30T01:12:38.114Z,99.90
2022-07-30T01:13:40.352Z,99.90
2022-07-30T01:14:43.394Z,99.90
2022-07-30T01:15:45.845Z,99.90
2022-07-30T01:16:48.899Z,99.90
2022-07-30T01:17:53.433Z,99.90
2022-07-30T01:19:16.611Z,99.90
2022-07-30T01:20:24.962Z,99.90
2022-07-30T01:21:32.537Z,99.90
2022-07-30T01:22:52.604Z,99.90
2022-07-30T01:24:05.337Z,99.90
2022-07-30T01:25:17.052Z,99.90
2022-07-30T01:26:22.406Z,99.90
2022-07-30T01:27:27.333Z,99.90
2022-07-30T01:28:33.068Z,99.90
2022-07-30T01:29:37.201Z,99.90
2022-07-30T01:30:41.954Z,99.90
2022-07-30T01:31:47.439Z,99.90
2022-07-30T01:32:51.868Z,99.90
2022-07-30T01:33:56.153Z,99.90
2022-07-30T01:35:02.473Z,99.90
2022-07-30T01:36:10.056Z,99.90
2022-07-30T01:37:13.297Z,99.90
2022-07-30T01:38:19.238Z,99.90
2022-07-30T01:39:23.136Z,99.90
2022-07-30T01:40:27.892Z,99.90
2022-07-30T01:41:33.024Z,99.90
2022-07-30T01:42:37.264Z,99.90
2022-07-30T01:43:42.425Z,99.90
2022-07-30T01:44:49.302Z,99.90
2022-07-30T01:45:53.924Z,99.90
2022-07-30T01:46:56.748Z,99.90
2022-07-30T01:48:01.844Z,99.90
2022-07-30T01:49:04.384Z,99.90
2022-07-30T01:50:14.459Z,99.90
2022-07-30T01:51:18.170Z,99.90
2022-07-30T01:52:25.397Z,99.90
2022-07-30T01:53:31.501Z,99.90
2022-07-30T01:54:36.032Z,99.90
2022-07-30T01:55:41.014Z,99.90
2022-07-30T01:56:46.998Z,99.90
2022-07-30T01:57:50.058Z,99.90
2022-07-30T01:58:54.912Z,99.90
2022-07-30T02:00:01.938Z,99.90
2022-07-30T02:01:08.874Z,99.90
2022-07-30T02:02:11.054Z,99.90
2022-07-30T02:03:14.371Z,99.90
2022-07-30T02:04:19.143Z,99.90
2022-07-30T02:05:22.297Z,99.90
2022-07-30T02:06:33.032Z,99.90
2022-07-30T02:07:42.160Z,99.90
2022-07-30T02:08:49.023Z,99.90
2022-07-30T02:10:00.600Z,99.90
2022-07-30T02:11:07.467Z,99.90
2022-07-30T02:12:32.157Z,99.90
2022-07-30T02:13:47.377Z,99.90
2022-07-30T02:14:54.654Z,99.90
2022-07-30T02:16:00.000Z,99.90
2022-07-30T02:17:05.357Z,99.90
2022-07-30T02:18:13.573Z,99.90
2022-07-30T02:19:18.873Z,99.90
2022-07-30T02:20:28.387Z,99.90
2022-07-30T02:21:37.731Z,99.90
2022-07-30T02:22:43.590Z,99.90
2022-07-30T02:23:48.073Z,99.90
2022-07-30T02:24:52.991Z,99.90
2022-07-30T02:25:58.808Z,99.90
2022-07-30T02:27:08.015Z,99.90
2022-07-30T02:28:15.641Z,99.90
2022-07-30T02:29:20.778Z,99.90
2022-07-30T02:30:26.870Z,99.90
2022-07-30T02:31:31.475Z,99.90
2022-07-30T02:32:38.525Z,99.90
2022-07-30T02:33:49.081Z,99.90
2022-07-30T02:35:01.498Z,99.90
2022-07-30T02:36:09.769Z,99.90
2022-07-30T02:37:15.587Z,99.90
2022-07-30T02:38:20.692Z,99.90
2022-07-30T02:39:23.291Z,99.90
2022-07-30T02:40:27.678Z,99.90
2022-07-30T02:41:32.876Z,99.90
2022-07-30T02:42:36.713Z,99.90
2022-07-30T02:43:42.074Z,99.90
2022-07-30T02:44:46.941Z,99.90
2022-07-30T02:45:49.345Z,99.90
2022-07-30T02:46:57.192Z,99.90
2022-07-30T02:48:07.602Z,99.90
2022-07-30T02:49:13.149Z,99.90
2022-07-30T02:50:19.581Z,99.90
2022-07-30T02:51:24.103Z,99.90
2022-07-30T02:52:28.536Z,99.90
2022-07-30T02:53:33.365Z,99.90
2022-07-30T02:54:39.540Z,99.90
2022-07-30T02:55:45.857Z,99.90
2022-07-30T02:56:48.629Z,99.90
2022-07-30T02:57:52.920Z,99.90
2022-07-30T02:58:59.047Z,99.90
2022-07-30T03:00:03.504Z,99.90
2022-07-30T03:01:06.763Z,99.90
2022-07-30T03:02:12.576Z,99.90
2022-07-30T03:03:18.833Z,99.90
2022-07-30T03:04:21.834Z,99.90
2022-07-30T03:05:25.692Z,99.90
2022-07-30T03:06:30.758Z,99.90
2022-07-30T03:07:35.530Z,99.90
2022-07-30T03:08:38.001Z,99.90
2022-07-30T03:09:51.500Z,99.90
2022-07-30T03:10:57.148Z,99.90
2022-07-30T03:12:03.264Z,99.90
2022-07-30T03:13:08.424Z,99.90
2022-07-30T03:14:12.023Z,99.90
2022-07-30T03:15:16.740Z,99.90
2022-07-30T03:16:30.615Z,99.90
2022-07-30T03:17:39.172Z,99.90
2022-07-30T03:18:43.077Z,99.90
2022-07-30T03:19:49.325Z,99.90
2022-07-30T03:20:54.548Z,99.90
2022-07-30T03:21:58.202Z,99.90
2022-07-30T03:23:05.192Z,99.90
2022-07-30T03:24:09.141Z,99.90
2022-07-30T03:25:16.082Z,99.90
2022-07-30T03:26:21.021Z,99.90
2022-07-30T03:27:25.636Z,99.90
2022-07-30T03:28:31.904Z,99.90
2022-07-30T03:29:38.191Z,99.90
2022-07-30T03:30:41.207Z,99.90
2022-07-30T03:31:45.083Z,99.90
2022-07-30T03:32:48.728Z,99.90
2022-07-30T03:33:52.394Z,99.90
2022-07-30T03:34:56.458Z,99.90
2022-07-30T03:36:01.773Z,99.90
2022-07-30T03:37:06.352Z,99.90
2022-07-30T03:38:12.066Z,99.90
2022-07-30T03:39:15.889Z,99.90
2022-07-30T03:40:19.094Z,99.90
2022-07-30T03:41:23.688Z,99.90
2022-07-30T03:42:26.762Z,99.90
2022-07-30T03:43:33.873Z,99.90
2022-07-30T03:44:39.257Z,99.90
2022-07-30T03:45:45.265Z,99.90
2022-07-30T03:46:50.448Z,99.90
2022-07-30T03:47:54.367Z,99.90
2022-07-30T03:48:57.796Z,99.90
2022-07-30T03:50:01.259Z,99.90
2022-07-30T03:51:09.212Z,99.90
2022-07-30T03:52:14.344Z,99.90
2022-07-30T03:53:16.993Z,99.90
2022-07-30T03:54:43.434Z,99.90
2022-07-30T03:56:13.887Z,99.90
2022-07-30T03:57:35.789Z,99.90
2022-07-30T03:58:38.389Z,99.90
2022-07-30T03:59:46.822Z,99.90
2022-07-30T04:00:56.313Z,99.90
2022-07-30T04:02:07.481Z,99.90
2022-07-30T04:03:38.811Z,99.90
2022-07-30T04:04:46.677Z,99.90
2022-07-30T04:05:48.816Z,99.90
2022-07-30T04:06:52.318Z,99.90
2022-07-30T04:07:57.257Z,99.90
2022-07-30T04:09:09.689Z,99.90
2022-07-30T04:10:14.326Z,99.90
2022-07-30T04:11:40.829Z,99.90
2022-07-30T04:12:46.144Z,99.90
2022-07-30T04:13:50.441Z,99.90
2022-07-30T04:15:01.381Z,99.90
2022-07-30T04:16:39.686Z,99.90
2022-07-30T04:17:37.451Z,99.90
2022-07-30T04:18:47.697Z,99.90
2022-07-30T04:19:54.205Z,99.90
2022-07-30T04:21:01.502Z,99.90
2022-07-30T04:22:05.913Z,99.90
2022-07-30T04:23:10.682Z,99.90
2022-07-30T04:24:15.859Z,99.90
2022-07-30T04:25:26.799Z,99.90
2022-07-30T04:26:33.487Z,99.90
2022-07-30T04:27:40.170Z,99.90
2022-07-30T04:29:13.481Z,99.90
2022-07-30T04:30:22.305Z,99.90
2022-07-30T04:31:28.121Z,99.90
2022-07-30T04:32:36.382Z,99.90
2022-07-30T04:33:58.856Z,99.90
2022-07-30T04:35:50.047Z,99.90
2022-07-30T04:36:49.574Z,99.90
2022-07-30T04:37:53.376Z,99.90
2022-07-30T04:38:59.873Z,99.90
2022-07-30T04:40:04.164Z,99.90
2022-07-30T04:41:07.600Z,99.90
2022-07-30T04:42:46.064Z,99.90
2022-07-30T04:43:48.324Z,99.90
2022-07-30T04:44:52.053Z,99.90
2022-07-30T04:46:03.927Z,99.90
2022-07-30T04:47:09.581Z,99.90
2022-07-30T04:48:28.942Z,99.90
2022-07-30T04:49:50.553Z,99.90
2022-07-30T04:50:57.445Z,99.90
2022-07-30T04:52:02.420Z,99.90
2022-07-30T04:53:04.710Z,99.90
2022-07-30T04:54:16.152Z,99.90
2022-07-30T04:55:20.665Z,99.90
2022-07-30T04:56:26.455Z,99.90
2022-07-30T04:57:30.715Z,99.90
2022-07-30T04:58:35.949Z,99.90
2022-07-30T04:59:38.731Z,99.90
2022-07-30T05:00:44.222Z,99.90
2022-07-30T05:02:11.552Z,99.90
2022-07-30T05:03:22.445Z,99.90
2022-07-30T05:04:35.818Z,99.90
2022-07-30T05:05:39.227Z,99.90
2022-07-30T05:06:48.921Z,99.90
2022-07-30T05:07:52.693Z,99.90
2022-07-30T05:09:01.653Z,99.90
2022-07-30T05:10:04.546Z,99.90
2022-07-30T05:11:12.977Z,99.90
2022-07-30T05:12:40.139Z,99.90
2022-07-30T05:13:48.491Z,99.90
2022-07-30T05:14:58.169Z,99.90
2022-07-30T05:16:00.431Z,99.90
2022-07-30T05:17:07.671Z,99.90
2022-07-30T05:18:10.598Z,99.90
2022-07-30T05:19:20.046Z,99.90
2022-07-30T05:20:22.722Z,99.90
2022-07-30T05:21:52.819Z,99.90
2022-07-30T05:22:55.393Z,99.90
2022-07-30T05:24:01.435Z,99.90
2022-07-30T05:25:16.169Z,99.90
2022-07-30T05:26:27.883Z,99.90
2022-07-30T05:27:33.454Z,99.90
2022-07-30T05:28:38.922Z,99.90
2022-07-30T05:29:47.441Z,99.90
2022-07-30T05:30:58.859Z,99.90
2022-07-30T05:32:03.715Z,99.90
2022-07-30T05:33:15.512Z,99.90
2022-07-30T05:34:19.390Z,99.90
2022-07-30T05:35:21.651Z,99.90
2022-07-30T05:36:33.555Z,99.90
2022-07-30T05:37:38.102Z,99.90
2022-07-30T05:38:41.217Z,99.90
2022-07-30T05:40:05.015Z,99.90
2022-07-30T05:41:32.284Z,99.90
2022-07-30T05:42:39.185Z,99.90
2022-07-30T05:43:45.611Z,99.90
2022-07-30T05:44:49.255Z,99.90
2022-07-30T05:45:52.784Z,99.90
2022-07-30T05:46:55.957Z,99.90
2022-07-30T05:47:58.599Z,99.90
2022-07-30T05:49:08.874Z,99.90
2022-07-30T05:50:11.091Z,99.90
2022-07-30T05:51:15.550Z,99.90
2022-07-30T05:52:18.761Z,99.90
2022-07-30T05:53:21.879Z,99.90
2022-07-30T05:54:58.019Z,99.90
2022-07-30T05:56:01.070Z,99.90
2022-07-30T05:57:28.840Z,99.90
2022-07-30T05:58:35.834Z,99.90
2022-07-30T05:59:39.070Z,99.90
2022-07-30T06:00:48.228Z,99.90
2022-07-30T06:01:50.461Z,99.90
2022-07-30T06:02:59.580Z,99.90
2022-07-30T06:04:06.940Z,99.90
2022-07-30T06:05:19.856Z,99.90
2022-07-30T06:06:23.328Z,99.90
2022-07-30T06:07:29.024Z,99.90
2022-07-30T06:08:36.286Z,99.90
2022-07-30T06:09:40.233Z,99.90
2022-07-30T06:10:48.290Z,99.90
2022-07-30T06:11:52.600Z,99.90
2022-07-30T06:13:00.578Z,99.90
2022-07-30T06:14:06.933Z,99.90
2022-07-30T06:15:11.125Z,99.90
2022-07-30T06:16:14.958Z,99.90
2022-07-30T06:17:18.476Z,99.90
2022-07-30T06:18:46.490Z,99.90
2022-07-30T06:20:01.032Z,99.90
2022-07-30T06:21:09.594Z,99.90
2022-07-30T06:22:37.346Z,99.90
2022-07-30T06:23:48.385Z,99.90
2022-07-30T06:25:09.827Z,99.90
2022-07-30T06:26:14.464Z,99.90
2022-07-30T06:27:17.913Z,99.90
2022-07-30T06:28:38.163Z,99.90
2022-07-30T06:29:50.028Z,99.90
2022-07-30T06:30:57.524Z,99.90
2022-07-30T06:32:03.890Z,99.90
2022-07-30T06:33:07.707Z,99.90
2022-07-30T06:34:12.336Z,99.90
2022-07-30T06:35:19.090Z,99.90
2022-07-30T06:36:23.496Z,99.90
2022-07-30T06:37:58.738Z,99.90
2022-07-30T06:39:09.926Z,99.90
2022-07-30T06:40:33.382Z,99.90
2022-07-30T06:41:53.673Z,99.90
2022-07-30T06:43:07.257Z,99.90
2022-07-30T06:44:17.664Z,99.90
2022-07-30T06:45:44.843Z,99.90
2022-07-30T06:46:58.171Z,99.90
2022-07-30T06:48:04.428Z,99.90
2022-07-30T06:49:07.712Z,99.90
2022-07-30T06:50:11.544Z,99.90
2022-07-30T06:51:17.721Z,99.90
2022-07-30T06:52:20.754Z,99.90
2022-07-30T06:53:26.344Z,99.90
2022-07-30T06:54:58.594Z,99.90
2022-07-30T06:56:10.895Z,99.90
2022-07-30T06:57:20.910Z,99.90
2022-07-30T06:58:26.430Z,99.90
2022-07-30T06:59:56.794Z,99.90
2022-07-30T07:01:10.887Z,99.90
2022-07-30T07:02:15.939Z,99.90
2022-07-30T07:03:45.111Z,99.90
2022-07-30T07:04:48.469Z,99.90
2022-07-30T07:05:51.043Z,99.90
2022-07-30T07:07:12.285Z,99.90
2022-07-30T07:08:18.467Z,99.90
2022-07-30T07:09:29.245Z,99.90
2022-07-30T07:11:01.531Z,99.90
2022-07-30T07:12:09.130Z,99.90
2022-07-30T07:13:12.279Z,99.90
2022-07-30T07:14:18.790Z,99.90
2022-07-30T07:15:32.831Z,99.90
2022-07-30T07:16:41.061Z,99.90
2022-07-30T07:18:04.165Z,99.90
2022-07-30T07:20:00.514Z,99.90
2022-07-30T07:20:43.389Z,99.90
2022-07-30T07:21:46.791Z,99.90
2022-07-30T07:22:51.326Z,99.90
2022-07-30T07:24:02.767Z,99.90
2022-07-30T07:25:27.861Z,99.90
2022-07-30T07:26:31.600Z,99.90
2022-07-30T07:27:39.565Z,99.90
2022-07-30T07:28:43.544Z,99.90
2022-07-30T07:30:01.710Z,99.90
2022-07-30T07:31:09.623Z,99.90
2022-07-30T07:32:15.180Z,99.90
2022-07-30T07:33:19.430Z,99.90
2022-07-30T07:34:30.439Z,99.90
2022-07-30T07:35:49.014Z,99.90
2022-07-30T07:36:57.325Z,99.90
2022-07-30T07:38:01.966Z,99.90
2022-07-30T07:39:09.678Z,99.90
2022-07-30T07:40:21.092Z,99.90
2022-07-30T07:41:27.765Z,99.90
2022-07-30T07:42:29.804Z,99.90
2022-07-30T07:43:33.038Z,99.90
2022-07-30T07:44:38.958Z,99.90
2022-07-30T07:45:42.793Z,99.90
2022-07-30T07:46:54.080Z,99.90
2022-07-30T07:47:59.008Z,99.90
2022-07-30T07:49:22.300Z,99.90
2022-07-30T07:50:28.791Z,99.90
2022-07-30T07:51:47.458Z,99.90
2022-07-30T07:53:00.247Z,99.90
2022-07-30T07:54:24.125Z,99.90
2022-07-30T07:55:29.122Z,99.90
2022-07-30T07:56:36.299Z,99.90
2022-07-30T07:57:40.133Z,99.90
2022-07-30T07:58:43.863Z,99.90
2022-07-30T07:59:47.801Z,99.90
2022-07-30T08:01:01.237Z,99.90
2022-07-30T08:02:31.594Z,99.90
2022-07-30T08:03:38.823Z,99.90
2022-07-30T08:04:59.968Z,99.90
2022-07-30T08:06:25.597Z,99.90
2022-07-30T08:07:47.628Z,99.90
2022-07-30T08:09:10.805Z,99.90
2022-07-30T08:10:33.996Z,99.90
2022-07-30T08:11:42.038Z,99.90
2022-07-30T08:13:48.986Z,99.90
2022-07-30T08:15:05.079Z,99.90
2022-07-30T08:16:32.381Z,99.90
2022-07-30T08:18:14.165Z,99.90
2022-07-30T08:19:41.990Z,99.90
2022-07-30T08:20:52.146Z,99.90
2022-07-30T08:22:05.530Z,99.90
2022-07-30T08:23:09.097Z,99.90
2022-07-30T08:24:16.153Z,99.90
2022-07-30T08:25:22.508Z,99.90
2022-07-30T08:26:28.049Z,99.90
2022-07-30T08:27:30.754Z,99.90
2022-07-30T08:28:36.275Z,99.90
2022-07-30T08:29:39.601Z,99.90
2022-07-30T08:30:42.875Z,99.90
2022-07-30T08:31:46.716Z,99.90
2022-07-30T08:32:49.995Z,99.90
2022-07-30T08:33:52.125Z,99.90
2022-07-30T08:34:57.834Z,99.90
2022-07-30T08:36:03.956Z,99.90
2022-07-30T08:37:12.153Z,99.90
2022-07-30T08:38:19.256Z,99.90
2022-07-30T08:39:31.070Z,99.90
2022-07-30T08:40:45.997Z,99.90
2022-07-30T08:41:50.507Z,99.90
2022-07-30T08:42:54.098Z,99.90
2022-07-30T08:44:00.864Z,99.90
2022-07-30T08:45:17.632Z,99.90
2022-07-30T08:46:24.990Z,99.90
2022-07-30T08:47:41.163Z,99.90
2022-07-30T08:49:54.233Z,99.90
2022-07-30T08:51:03.581Z,99.90
2022-07-30T08:52:11.339Z,99.90
2022-07-30T08:53:21.171Z,99.90
2022-07-30T08:54:28.009Z,99.90
2022-07-30T08:55:31.438Z,99.90
2022-07-30T08:56:37.679Z,99.90
2022-07-30T08:58:18.200Z,99.90
2022-07-30T08:59:59.321Z,99.90
2022-07-30T09:00:52.363Z,99.90
2022-07-30T09:01:58.296Z,99.90
2022-07-30T09:03:10.341Z,99.90
2022-07-30T09:04:18.542Z,99.90
2022-07-30T09:05:25.997Z,99.90
2022-07-30T09:06:46.218Z,99.90
2022-07-30T09:07:51.317Z,99.90
2022-07-30T09:08:57.309Z,99.90
2022-07-30T09:10:03.109Z,99.90
2022-07-30T09:11:09.715Z,99.90
2022-07-30T09:12:35.987Z,99.90
2022-07-30T09:13:46.540Z,99.90
2022-07-30T09:15:08.155Z,99.90
2022-07-30T09:16:22.694Z,99.90
2022-07-30T09:17:31.243Z,99.90
2022-07-30T09:18:38.879Z,99.90
2022-07-30T09:19:41.210Z,99.90
2022-07-30T09:20:44.382Z,99.90
2022-07-30T09:21:56.770Z,99.90
2022-07-30T09:23:08.971Z,99.90
2022-07-30T09:24:43.138Z,99.90
2022-07-30T09:26:09.981Z,99.90
2022-07-30T09:27:45.194Z,99.90
2022-07-30T09:29:17.281Z,99.90
2022-07-30T09:30:50.082Z,99.90
2022-07-30T09:32:49.178Z,99.90
2022-07-30T09:34:33.251Z,99.90
2022-07-30T09:35:56.468Z,99.90
2022-07-30T09:37:45.849Z,99.90
2022-07-30T09:39:39.761Z,99.90
2022-07-30T09:41:39.396Z,99.90
2022-07-30T09:42:47.914Z,99.90
2022-07-30T09:43:53.497Z,99.90
2022-07-30T09:45:11.488Z,99.90
2022-07-30T09:46:18.559Z,99.90
2022-07-30T09:47:31.640Z,99.90
2022-07-30T09:48:34.761Z,99.90
2022-07-30T09:49:37.313Z,99.90
2022-07-30T09:50:50.167Z,99.90
2022-07-30T09:53:18.204Z,99.90
2022-07-30T09:54:22.013Z,99.90
2022-07-30T09:55:33.685Z,99.90
2022-07-30T09:56:37.193Z,99.90
2022-07-30T09:57:58.695Z,99.90
2022-07-30T09:59:03.016Z,99.90
2022-07-30T10:00:24.073Z,99.90
2022-07-30T10:01:54.967Z,99.90
2022-07-30T10:03:33.712Z,99.90
2022-07-30T10:05:15.021Z,99.90
2022-07-30T10:06:18.797Z,99.90
2022-07-30T10:07:24.945Z,99.90
2022-07-30T10:08:41.237Z,99.90
2022-07-30T10:09:45.361Z,99.90
2022-07-30T10:10:51.047Z,99.90
2022-07-30T10:11:57.277Z,99.90
2022-07-30T10:13:07.429Z,99.90
2022-07-30T10:14:09.954Z,99.90
2022-07-30T10:15:14.487Z,99.60
2022-07-30T10:16:16.787Z,99.70
2022-07-30T10:17:21.928Z,99.30
2022-07-30T10:18:44.596Z,99.60
2022-07-30T10:20:14.949Z,99.70
2022-07-30T10:21:37.253Z,99.90
2022-07-30T10:23:27.186Z,99.30
2022-07-30T10:24:56.854Z,99.20
2022-07-30T10:26:19.390Z,99.10
2022-07-30T10:27:51.421Z,99.50
2022-07-30T10:29:05.230Z,99.90
2022-07-30T10:30:08.891Z,99.50
2022-07-30T10:31:47.929Z,99.90
2022-07-30T10:32:42.419Z,99.50
2022-07-30T10:33:48.769Z,98.80
2022-07-30T10:34:51.006Z,99.90
2022-07-30T10:35:54.471Z,98.30
2022-07-30T10:37:04.630Z,98.10
2022-07-30T10:38:14.289Z,96.80
2022-07-30T10:39:20.330Z,97.00
2022-07-30T10:40:30.839Z,97.00
2022-07-30T10:41:48.040Z,95.50
2022-07-30T10:43:18.268Z,96.10
2022-07-30T10:44:50.182Z,96.50
2022-07-30T10:46:02.655Z,96.20
2022-07-30T10:47:10.533Z,96.90
2022-07-30T10:48:13.114Z,97.10
2022-07-30T10:49:19.592Z,96.80
2022-07-30T10:50:26.781Z,97.40
2022-07-30T10:51:46.519Z,96.60
2022-07-30T10:52:51.212Z,96.30
2022-07-30T10:53:54.385Z,96.40
2022-07-30T10:54:56.550Z,96.30
2022-07-30T10:56:18.617Z,96.80
2022-07-30T10:57:32.988Z,97.10
2022-07-30T10:59:00.216Z,97.30
2022-07-30T11:00:15.468Z,97.50
2022-07-30T11:01:19.635Z,97.60
2022-07-30T11:02:28.030Z,97.40
2022-07-30T11:03:41.602Z,97.10
2022-07-30T11:04:48.248Z,97.30
2022-07-30T11:05:52.512Z,95.30
2022-07-30T11:07:27.937Z,94.80
2022-07-30T11:08:42.798Z,95.00
2022-07-30T11:09:49.769Z,95.80
2022-07-30T11:12:01.277Z,95.20
2022-07-30T11:13:07.924Z,95.70
2022-07-30T11:14:12.930Z,95.50
2022-07-30T11:15:19.146Z,94.30
2022-07-30T11:16:24.208Z,93.40
2022-07-30T11:17:26.630Z,93.40
2022-07-30T11:18:29.986Z,94.00
2022-07-30T11:19:55.904Z,95.10
2022-07-30T11:21:22.619Z,92.80
2022-07-30T11:22:27.367Z,93.70
2022-07-30T11:23:40.944Z,93.80
2022-07-30T11:24:45.501Z,94.10
2022-07-30T11:25:50.416Z,93.40
2022-07-30T11:26:55.351Z,92.30
2022-07-30T11:27:57.884Z,91.70
2022-07-30T11:29:01.153Z,92.60
2022-07-30T11:30:08.134Z,92.60
2022-07-30T11:31:37.077Z,93.00
2022-07-30T11:32:53.491Z,93.00
2022-07-30T11:34:26.606Z,93.90
2022-07-30T11:35:34.410Z,94.10
2022-07-30T11:36:37.751Z,93.60
2022-07-30T11:38:06.994Z,93.80
2022-07-30T11:39:10.062Z,93.20
2022-07-30T11:40:14.247Z,93.10
2022-07-30T11:41:16.356Z,92.80
2022-07-30T11:42:26.442Z,92.10
2022-07-30T11:43:36.265Z,92.50
2022-07-30T11:44:38.782Z,91.70
2022-07-30T11:45:43.830Z,91.40
2022-07-30T11:46:49.095Z,91.80
2022-07-30T11:47:53.927Z,91.30
2022-07-30T11:48:58.328Z,91.70
2022-07-30T11:50:00.455Z,91.40
2022-07-30T11:51:06.271Z,91.60
2022-07-30T11:52:09.200Z,92.00
2022-07-30T11:53:16.839Z,91.90
2022-07-30T11:54:19.018Z,92.10
2022-07-30T11:55:26.894Z,92.50
2022-07-30T11:56:30.150Z,92.80
2022-07-30T11:57:39.965Z,92.80
2022-07-30T11:58:44.766Z,93.00
2022-07-30T11:59:54.094Z,93.60
2022-07-30T12:01:01.954Z,93.80
2022-07-30T12:02:04.501Z,94.20
2022-07-30T12:03:16.821Z,94.70
2022-07-30T12:04:19.453Z,94.70
2022-07-30T12:05:28.108Z,95.50
2022-07-30T12:06:32.073Z,95.70
2022-07-30T12:07:35.319Z,96.10
2022-07-30T12:08:41.843Z,96.30
2022-07-30T12:09:43.956Z,96.10
2022-07-30T12:10:57.693Z,96.10
2022-07-30T12:12:02.374Z,96.40
2022-07-30T12:13:08.671Z,95.90
2022-07-30T12:14:11.784Z,95.50
2022-07-30T12:15:29.860Z,95.00
2022-07-30T12:16:35.082Z,94.70
2022-07-30T12:17:42.026Z,94.10
2022-07-30T12:18:46.047Z,93.60
2022-07-30T12:19:48.883Z,93.20
2022-07-30T12:20:55.954Z,93.50
2022-07-30T12:22:01.514Z,93.00
2022-07-30T12:23:09.684Z,92.60
2022-07-30T12:24:13.638Z,92.40
2022-07-30T12:25:15.992Z,93.30
2022-07-30T12:26:22.543Z,93.30
2022-07-30T12:27:24.854Z,93.10
2022-07-30T12:28:30.009Z,92.40
2022-07-30T12:29:33.266Z,91.20
2022-07-30T12:30:40.124Z,91.10
2022-07-30T12:31:46.157Z,91.10
2022-07-30T12:32:48.740Z,90.10
2022-07-30T12:33:52.164Z,90.70
2022-07-30T12:34:56.020Z,90.60
2022-07-30T12:36:01.520Z,91.50
2022-07-30T12:37:10.604Z,90.50
2022-07-30T12:38:14.674Z,90.30
2022-07-30T12:39:22.219Z,89.30
2022-07-30T12:40:24.369Z,88.70
2022-07-30T12:41:43.726Z,88.40
2022-07-30T12:42:52.653Z,87.70
2022-07-30T12:43:57.297Z,89.00
2022-07-30T12:44:59.990Z,87.90
2022-07-30T12:46:03.343Z,88.50
2022-07-30T12:47:19.768Z,88.40
2022-07-30T12:48:23.069Z,87.80
2022-07-30T12:49:36.862Z,86.30
2022-07-30T12:50:49.296Z,83.90
2022-07-30T12:51:59.726Z,84.50
2022-07-30T12:53:03.925Z,85.40
2022-07-30T12:54:16.915Z,83.60
2022-07-30T12:55:31.993Z,85.10
2022-07-30T12:56:34.832Z,85.70
2022-07-30T12:57:54.867Z,84.20
2022-07-30T12:58:59.878Z,85.80
2022-07-30T13:00:05.831Z,87.30
2022-07-30T13:01:11.099Z,84.60
2022-07-30T13:02:31.833Z,87.60
2022-07-30T13:03:40.179Z,85.90
2022-07-30T13:05:10.375Z,84.80
2022-07-30T13:06:16.777Z,83.30
2022-07-30T13:07:18.858Z,83.00
2022-07-30T13:08:22.502Z,82.10
2022-07-30T13:09:24.643Z,81.90
2022-07-30T13:10:31.517Z,81.20
2022-07-30T13:11:42.777Z,82.40
2022-07-30T13:12:51.534Z,81.90
2022-07-30T13:13:55.336Z,83.80
2022-07-30T13:14:57.366Z,83.00
2022-07-30T13:16:02.164Z,84.30
2022-07-30T13:17:06.255Z,84.20
2022-07-30T13:18:09.896Z,82.90
2022-07-30T13:19:13.417Z,83.00
2022-07-30T13:20:16.790Z,82.60
2022-07-30T13:21:19.965Z,82.60
2022-07-30T13:22:22.083Z,82.30
2022-07-30T13:23:25.867Z,82.70
2022-07-30T13:24:28.161Z,83.60
2022-07-30T13:25:40.461Z,82.70
2022-07-30T13:26:42.835Z,84.40
2022-07-30T13:27:45.887Z,82.90
2022-07-30T13:28:49.201Z,81.50
2022-07-30T13:29:51.319Z,82.10
2022-07-30T13:30:54.496Z,80.80
2022-07-30T13:32:01.366Z,81.30
2022-07-30T13:33:04.781Z,82.40
2022-07-30T13:34:09.411Z,82.80
2022-07-30T13:35:11.491Z,83.20
2022-07-30T13:36:14.632Z,80.80
2022-07-30T13:37:19.174Z,78.40
2022-07-30T13:38:22.420Z,80.60
2022-07-30T13:39:24.601Z,81.10
2022-07-30T13:40:32.096Z,81.70
2022-07-30T13:41:34.626Z,79.10
2022-07-30T13:42:38.165Z,79.40
2022-07-30T13:43:40.451Z,80.70
2022-07-30T13:44:43.608Z,82.00
2022-07-30T13:45:50.606Z,79.50
2022-07-30T13:46:52.910Z,80.80
2022-07-30T13:47:56.895Z,80.90
2022-07-30T13:49:00.585Z,81.10
2022-07-30T13:50:04.892Z,82.20
2022-07-30T13:51:09.763Z,80.90
2022-07-30T13:52:12.115Z,79.30
2022-07-30T13:53:17.594Z,79.50
2022-07-30T13:54:20.314Z,78.20
2022-07-30T13:55:23.574Z,79.40
2022-07-30T13:56:31.049Z,80.80
2022-07-30T13:57:34.220Z,81.50
2022-07-30T13:58:43.484Z,80.10
2022-07-30T13:59:46.950Z,80.40
2022-07-30T14:00:51.633Z,80.70
2022-07-30T14:01:56.842Z,80.90
2022-07-30T14:03:00.397Z,80.90
2022-07-30T14:04:03.652Z,81.30
2022-07-30T14:05:14.864Z,79.70
2022-07-30T14:06:21.193Z,80.10
2022-07-30T14:07:23.416Z,79.60
2022-07-30T14:08:31.383Z,78.70
2022-07-30T14:09:33.474Z,79.00
2022-07-30T14:10:52.727Z,79.50
2022-07-30T14:11:59.947Z,79.80
2022-07-30T14:13:02.271Z,79.70
2022-07-30T14:14:05.674Z,80.00
2022-07-30T14:15:17.431Z,79.50
2022-07-30T14:16:43.568Z,80.10
2022-07-30T14:17:43.542Z,80.30
2022-07-30T14:19:00.085Z,79.00
2022-07-30T14:20:02.446Z,79.90
2022-07-30T14:21:07.406Z,79.50
2022-07-30T14:22:09.517Z,78.00
2022-07-30T14:23:12.792Z,81.40
2022-07-30T14:24:16.510Z,80.50
2022-07-30T14:25:20.144Z,77.10
2022-07-30T14:26:22.331Z,79.40
2022-07-30T14:27:25.527Z,79.10
2022-07-30T14:28:30.274Z,79.50
2022-07-30T14:29:33.346Z,78.10
2022-07-30T14:30:36.270Z,76.90
2022-07-30T14:31:40.413Z,77.50
2022-07-30T14:32:42.740Z,76.90
2022-07-30T14:33:45.870Z,76.50
2022-07-30T14:34:50.523Z,77.40
2022-07-30T14:35:53.618Z,77.20
2022-07-30T14:36:57.178Z,78.40
2022-07-30T14:38:03.430Z,80.00
2022-07-30T14:39:08.722Z,78.10
2022-07-30T14:40:12.309Z,79.20
2022-07-30T14:41:15.450Z,79.90
2022-07-30T14:42:17.810Z,79.40
2022-07-30T14:43:21.294Z,77.90
2022-07-30T14:44:23.934Z,78.00
2022-07-30T14:45:28.834Z,78.70
2022-07-30T14:46:31.221Z,75.60
2022-07-30T14:47:34.297Z,76.20
2022-07-30T14:48:36.467Z,76.70
2022-07-30T14:49:41.924Z,78.00